Time,TemperatureF,DewpointF,PressureIn,WindDirection,WindDirectionDegrees,WindSpeedMPH,WindSpeedGustMPH,Humidity,HourlyPrecipIn,Conditions,Clouds,dailyrainin,SoftwareType,DateUTC
2013-06-10 00:02:00,66.4,64.6,29.86,South,184,0.0,0.0,94,0.00,,---,0.00,VWS V14.01,2013-06-10 05:02:00,
2013-06-10 00:07:00,66.4,64.6,29.86,South,184,0.0,0.0,94,0.00,,---,0.00,VWS V14.01,2013-06-10 05:07:00,
2013-06-10 00:12:00,66.4,64.6,29.86,South,184,0.0,0.0,94,0.00,,---,0.00,VWS V14.01,2013-06-10 05:12:00,
2013-06-10 00:17:00,66.4,64.6,29.86,South,184,0.0,0.0,94,0.00,,---,0.00,VWS V14.01,2013-06-10 05:17:00,
2013-06-10 00:22:00,66.3,64.5,29.86,South,184,0.0,0.0,94,0.00,,---,0.00,VWS V14.01,2013-06-10 05:22:00,
2013-06-10 00:27:00,66.3,64.5,29.87,South,184,0.0,0.0,94,0.00,,---,0.00,VWS V14.01,2013-06-10 05:27:00,
2013-06-10 00:32:00,66.3,64.5,29.86,South,184,0.0,0.0,94,0.00,,---,0.00,VWS V14.01,2013-06-10 05:32:00,
2013-06-10 00:37:00,66.3,64.5,29.86,South,184,0.0,0.0,94,0.00,,---,0.00,VWS V14.01,2013-06-10 05:37:00,
2013-06-10 00:42:00,66.3,64.5,29.86,South,184,0.0,0.0,94,0.00,,---,0.00,VWS V14.01,2013-06-10 05:42:00,
2013-06-10 00:47:00,66.1,64.3,29.86,South,184,0.0,0.0,94,0.00,,---,0.00,VWS V14.01,2013-06-10 05:47:00,
2013-06-10 00:52:00,66.3,64.8,29.86,South,184,0.0,0.0,95,0.00,,---,0.00,VWS V14.01,2013-06-10 05:52:00,
2013-06-10 00:57:00,66.3,64.8,29.86,South,184,0.0,0.0,95,0.00,,---,0.00,VWS V14.01,2013-06-10 05:57:00,
2013-06-10 01:02:00,66.3,64.8,29.87,South,184,0.0,0.0,95,0.00,,---,0.00,VWS V14.01,2013-06-10 06:02:00,
2013-06-10 01:07:00,66.1,64.3,29.87,South,184,0.0,0.0,94,0.00,,---,0.00,VWS V14.01,2013-06-10 06:07:00,
2013-06-10 01:12:00,66.1,64.6,29.87,South,184,0.0,0.0,95,0.00,,---,0.00,VWS V14.01,2013-06-10 06:12:00,
2013-06-10 01:17:00,66.1,64.6,29.87,South,184,0.0,0.0,95,0.00,,---,0.00,VWS V14.01,2013-06-10 06:17:00,
2013-06-10 01:22:00,66.1,64.6,29.87,South,184,0.0,0.0,95,0.00,,---,0.00,VWS V14.01,2013-06-10 06:22:00,
2013-06-10 01:27:00,66.3,64.8,29.87,South,184,0.0,0.0,95,0.00,,---,0.00,VWS V14.01,2013-06-10 06:27:00,
2013-06-10 01:32:00,66.3,65.1,29.87,South,184,0.0,0.0,96,0.00,,---,0.00,VWS V14.01,2013-06-10 06:32:00,
2013-06-10 01:37:00,67.3,65.8,29.87,South,184,0.0,0.0,95,0.00,,---,0.00,VWS V14.01,2013-06-10 06:37:00,
2013-06-10 01:42:00,67.1,65.6,29.87,South,184,0.0,0.0,95,0.00,,---,0.00,VWS V14.01,2013-06-10 06:42:00,
2013-06-10 01:47:00,67.1,65.6,29.87,South,184,0.0,0.0,95,0.00,,---,0.00,VWS V14.01,2013-06-10 06:47:00,
2013-06-10 01:52:00,66.4,64.9,29.87,South,184,0.0,0.0,95,0.00,,---,0.00,VWS V14.01,2013-06-10 06:52:00,
2013-06-10 01:57:00,66.4,64.9,29.87,South,184,0.0,0.0,95,0.00,,---,0.00,VWS V14.01,2013-06-10 06:57:00,
2013-06-10 02:02:00,66.4,64.9,29.86,South,184,0.0,0.0,95,0.00,,---,0.00,VWS V14.01,2013-06-10 07:02:00,
2013-06-10 02:08:00,66.6,65.1,29.86,South,184,0.0,0.0,95,0.00,,---,0.00,VWS V14.01,2013-06-10 07:08:00,
2013-06-10 02:13:00,66.8,65.3,29.86,South,184,0.0,0.0,95,0.00,,---,0.00,VWS V14.01,2013-06-10 07:13:00,
2013-06-10 02:18:00,66.9,65.4,29.86,South,184,0.0,0.0,95,0.00,,---,0.00,VWS V14.01,2013-06-10 07:18:00,
2013-06-10 02:23:00,66.9,65.4,29.87,South,184,0.0,0.0,95,0.00,,---,0.00,VWS V14.01,2013-06-10 07:23:00,
2013-06-10 02:28:00,66.9,65.4,29.86,South,184,0.0,0.0,95,0.00,,---,0.00,VWS V14.01,2013-06-10 07:28:00,
2013-06-10 02:33:00,67.1,65.6,29.86,South,184,0.0,0.0,95,0.00,,---,0.00,VWS V14.01,2013-06-10 07:33:00,
2013-06-10 02:38:00,66.8,65.3,29.85,South,184,0.0,0.0,95,0.00,,---,0.00,VWS V14.01,2013-06-10 07:38:00,
2013-06-10 02:43:00,66.1,64.6,29.85,South,184,1.0,2.0,95,0.00,,---,0.00,VWS V14.01,2013-06-10 07:43:00,
2013-06-10 02:48:00,66.3,64.8,29.86,South,184,0.0,2.0,95,0.00,,---,0.00,VWS V14.01,2013-06-10 07:48:00,
2013-06-10 02:53:00,66.4,65.2,29.85,South,184,0.0,1.0,96,0.00,,---,0.00,VWS V14.01,2013-06-10 07:53:00,
2013-06-10 02:58:00,66.3,65.1,29.86,South,184,0.0,1.0,96,0.00,,---,0.00,VWS V14.01,2013-06-10 07:58:00,
2013-06-10 03:03:00,66.3,65.1,29.87,South,184,0.0,0.0,96,0.00,,---,0.00,VWS V14.01,2013-06-10 08:03:00,
2013-06-10 03:08:00,66.3,65.1,29.86,South,184,0.0,0.0,96,0.00,,---,0.00,VWS V14.01,2013-06-10 08:08:00,
2013-06-10 03:13:00,66.0,64.8,29.86,South,184,0.0,0.0,96,0.00,,---,0.00,VWS V14.01,2013-06-10 08:13:00,
2013-06-10 03:18:00,66.0,64.8,29.86,South,184,0.0,0.0,96,0.00,,---,0.00,VWS V14.01,2013-06-10 08:18:00,
2013-06-10 03:23:00,65.8,64.6,29.85,South,184,0.0,0.0,96,0.00,,---,0.00,VWS V14.01,2013-06-10 08:23:00,
2013-06-10 03:28:00,65.5,64.3,29.85,South,184,0.0,0.0,96,0.00,,---,0.00,VWS V14.01,2013-06-10 08:28:00,
2013-06-10 03:33:00,65.3,64.1,29.86,South,184,0.0,0.0,96,0.00,,---,0.00,VWS V14.01,2013-06-10 08:33:00,
2013-06-10 03:38:00,65.3,64.1,29.86,South,184,0.0,0.0,96,0.00,,---,0.00,VWS V14.01,2013-06-10 08:38:00,
2013-06-10 03:43:00,65.2,64.0,29.86,South,184,0.0,0.0,96,0.00,,---,0.00,VWS V14.01,2013-06-10 08:43:00,
2013-06-10 03:48:00,65.0,63.8,29.86,South,184,0.0,0.0,96,0.00,,---,0.00,VWS V14.01,2013-06-10 08:48:00,
2013-06-10 03:53:00,65.0,63.8,29.85,South,186,0.0,0.0,96,0.00,,---,0.00,VWS V14.01,2013-06-10 08:53:00,
2013-06-10 03:58:00,65.2,64.0,29.85,South,184,0.0,0.0,96,0.00,,---,0.00,VWS V14.01,2013-06-10 08:58:00,
2013-06-10 04:03:00,65.3,64.1,29.85,South,184,0.0,0.0,96,0.00,,---,0.00,VWS V14.01,2013-06-10 09:03:00,
2013-06-10 04:08:00,65.3,64.1,29.85,South,184,0.0,0.0,96,0.00,,---,0.00,VWS V14.01,2013-06-10 09:08:00,
2013-06-10 04:13:00,65.3,64.1,29.86,South,184,0.0,1.0,96,0.00,,---,0.00,VWS V14.01,2013-06-10 09:13:00,
2013-06-10 04:18:00,65.2,64.0,29.86,South,184,0.0,1.0,96,0.00,,---,0.00,VWS V14.01,2013-06-10 09:18:00,
2013-06-10 04:23:00,65.3,64.1,29.85,South,184,0.0,1.0,96,0.00,,---,0.00,VWS V14.01,2013-06-10 09:23:00,
2013-06-10 04:28:00,65.6,64.4,29.86,South,184,0.0,1.0,96,0.00,,---,0.00,VWS V14.01,2013-06-10 09:28:00,
2013-06-10 04:33:00,65.8,64.6,29.85,South,184,1.0,1.0,96,0.00,,---,0.00,VWS V14.01,2013-06-10 09:33:00,
2013-06-10 04:38:00,66.0,64.8,29.85,South,184,0.0,1.0,96,0.00,,---,0.00,VWS V14.01,2013-06-10 09:38:00,
2013-06-10 04:43:00,65.6,64.4,29.86,South,184,0.0,0.0,96,0.00,,---,0.00,VWS V14.01,2013-06-10 09:43:00,
2013-06-10 04:48:00,65.5,64.3,29.86,South,184,0.0,0.0,96,0.00,,---,0.00,VWS V14.01,2013-06-10 09:48:00,
2013-06-10 04:53:00,65.5,64.3,29.86,South,184,0.0,0.0,96,0.00,,---,0.00,VWS V14.01,2013-06-10 09:53:00,
2013-06-10 04:58:00,65.5,64.3,29.87,South,184,0.0,0.0,96,0.00,,---,0.00,VWS V14.01,2013-06-10 09:58:00,
2013-06-10 05:03:00,65.5,64.3,29.87,South,184,0.0,0.0,96,0.00,,---,0.00,VWS V14.01,2013-06-10 10:03:00,
2013-06-10 05:08:00,65.6,64.4,29.87,South,184,0.0,0.0,96,0.00,,---,0.00,VWS V14.01,2013-06-10 10:08:00,
2013-06-10 05:13:00,65.5,64.3,29.87,South,184,0.0,0.0,96,0.00,,---,0.00,VWS V14.01,2013-06-10 10:13:00,
2013-06-10 05:18:00,65.3,64.1,29.87,South,184,0.0,0.0,96,0.00,,---,0.00,VWS V14.01,2013-06-10 10:18:00,
2013-06-10 05:23:00,65.3,64.1,29.88,South,184,0.0,0.0,96,0.00,,---,0.00,VWS V14.01,2013-06-10 10:23:00,
2013-06-10 05:28:00,65.0,63.8,29.87,South,186,0.0,0.0,96,0.00,,---,0.00,VWS V14.01,2013-06-10 10:28:00,
2013-06-10 05:33:00,64.8,63.6,29.88,South,186,0.0,0.0,96,0.00,,---,0.00,VWS V14.01,2013-06-10 10:33:00,
2013-06-10 05:38:00,64.7,63.5,29.88,South,184,0.0,0.0,96,0.00,,---,0.00,VWS V14.01,2013-06-10 10:38:00,
2013-06-10 05:43:00,64.7,63.5,29.88,South,184,0.0,0.0,96,0.00,,---,0.00,VWS V14.01,2013-06-10 10:43:00,
2013-06-10 05:48:00,64.5,63.3,29.88,South,184,0.0,0.0,96,0.00,,---,0.00,VWS V14.01,2013-06-10 10:48:00,
2013-06-10 05:53:00,64.3,63.1,29.88,South,184,0.0,0.0,96,0.00,,---,0.00,VWS V14.01,2013-06-10 10:53:00,
2013-06-10 05:58:00,64.2,63.0,29.88,South,184,0.0,0.0,96,0.00,,---,0.00,VWS V14.01,2013-06-10 10:58:00,
2013-06-10 06:03:00,64.0,62.8,29.88,South,184,0.0,0.0,96,0.00,,---,0.00,VWS V14.01,2013-06-10 11:03:00,
2013-06-10 06:08:00,64.0,62.8,29.88,South,184,0.0,0.0,96,0.00,,---,0.00,VWS V14.01,2013-06-10 11:08:00,
2013-06-10 06:13:00,63.9,62.7,29.89,South,184,0.0,0.0,96,0.00,,---,0.00,VWS V14.01,2013-06-10 11:13:00,
2013-06-10 06:18:00,63.9,62.7,29.89,South,184,0.0,0.0,96,0.00,,---,0.00,VWS V14.01,2013-06-10 11:18:00,
2013-06-10 06:23:00,63.9,62.7,29.89,South,184,0.0,0.0,96,0.00,,---,0.00,VWS V14.01,2013-06-10 11:23:00,
2013-06-10 06:28:00,63.9,62.7,29.89,South,184,0.0,0.0,96,0.00,,---,0.00,VWS V14.01,2013-06-10 11:28:00,
2013-06-10 06:33:00,63.7,62.5,29.89,South,184,0.0,0.0,96,0.00,,---,0.00,VWS V14.01,2013-06-10 11:33:00,
2013-06-10 06:38:00,63.7,62.5,29.89,South,184,0.0,0.0,96,0.00,,---,0.00,VWS V14.01,2013-06-10 11:38:00,
2013-06-10 06:43:00,63.7,62.5,29.89,South,184,0.0,0.0,96,0.00,,---,0.00,VWS V14.01,2013-06-10 11:43:00,
2013-06-10 06:48:00,63.9,62.7,29.89,South,184,0.0,0.0,96,0.00,,---,0.00,VWS V14.01,2013-06-10 11:48:00,
2013-06-10 06:53:00,64.0,62.8,29.89,South,184,0.0,0.0,96,0.00,,---,0.00,VWS V14.01,2013-06-10 11:53:00,
2013-06-10 06:58:00,64.8,63.9,29.89,South,184,0.0,0.0,97,0.00,,---,0.00,VWS V14.01,2013-06-10 11:58:00,
2013-06-10 07:03:00,65.3,64.4,29.90,South,184,0.0,0.0,97,0.00,,---,0.00,VWS V14.01,2013-06-10 12:03:00,
2013-06-10 07:08:00,66.1,65.2,29.90,South,184,0.0,0.0,97,0.00,,---,0.00,VWS V14.01,2013-06-10 12:08:00,
2013-06-10 07:13:00,66.9,66.0,29.90,South,184,0.0,0.0,97,0.00,,---,0.00,VWS V14.01,2013-06-10 12:13:00,
2013-06-10 07:18:00,67.6,66.7,29.90,South,184,0.0,0.0,97,0.00,,---,0.00,VWS V14.01,2013-06-10 12:18:00,
2013-06-10 07:23:00,68.3,67.4,29.90,South,184,0.0,0.0,97,0.00,,---,0.00,VWS V14.01,2013-06-10 12:23:00,
2013-06-10 07:28:00,68.9,68.0,29.90,South,184,0.0,0.0,97,0.00,,---,0.00,VWS V14.01,2013-06-10 12:28:00,
2013-06-10 07:33:00,69.8,68.9,29.90,South,184,0.0,0.0,97,0.00,,---,0.00,VWS V14.01,2013-06-10 12:33:00,
2013-06-10 07:38:00,70.6,69.7,29.90,South,184,0.0,0.0,97,0.00,,---,0.00,VWS V14.01,2013-06-10 12:38:00,
2013-06-10 07:43:00,71.5,70.6,29.90,South,184,0.0,0.0,97,0.00,,---,0.00,VWS V14.01,2013-06-10 12:43:00,
2013-06-10 07:48:00,72.1,71.2,29.90,South,184,1.0,1.0,97,0.00,,---,0.00,VWS V14.01,2013-06-10 12:48:00,
2013-06-10 07:53:00,72.1,71.2,29.90,South,180,1.0,2.0,97,0.00,,---,0.00,VWS V14.01,2013-06-10 12:53:00,
2013-06-10 07:58:00,72.5,71.3,29.90,South,170,0.0,2.0,96,0.00,,---,0.00,VWS V14.01,2013-06-10 12:58:00,
2013-06-10 08:03:00,72.8,71.6,29.90,South,170,0.0,2.0,96,0.00,,---,0.00,VWS V14.01,2013-06-10 13:03:00,
2013-06-10 08:08:00,73.2,72.0,29.90,South,170,1.0,2.0,96,0.00,,---,0.00,VWS V14.01,2013-06-10 13:08:00,
2013-06-10 08:13:00,73.3,72.1,29.90,South,186,1.0,1.0,96,0.00,,---,0.00,VWS V14.01,2013-06-10 13:13:00,
2013-06-10 08:18:00,73.7,72.5,29.90,South,170,2.0,5.0,96,0.00,,---,0.00,VWS V14.01,2013-06-10 13:18:00,
2013-06-10 08:23:00,73.7,71.2,29.90,SSE,164,3.0,3.0,92,0.00,,---,0.00,VWS V14.01,2013-06-10 13:23:00,
2013-06-10 08:28:00,74.4,71.9,29.90,SE,146,2.0,5.0,92,0.00,,---,0.00,VWS V14.01,2013-06-10 13:28:00,
2013-06-10 08:33:00,74.6,71.2,29.91,South,186,2.0,6.0,89,0.00,,---,0.00,VWS V14.01,2013-06-10 13:33:00,
2013-06-10 08:38:00,74.9,71.4,29.91,South,183,3.0,7.0,89,0.00,,---,0.00,VWS V14.01,2013-06-10 13:38:00,
2013-06-10 08:43:00,75.1,71.3,29.91,South,188,3.0,3.0,88,0.00,,---,0.00,VWS V14.01,2013-06-10 13:43:00,
2013-06-10 08:48:00,75.8,72.0,29.91,SW,215,3.0,8.0,88,0.00,,---,0.00,VWS V14.01,2013-06-10 13:48:00,
2013-06-10 08:53:00,76.3,72.5,29.91,South,179,1.0,3.0,88,0.00,,---,0.00,VWS V14.01,2013-06-10 13:53:00,
2013-06-10 08:58:00,76.7,71.9,29.91,SSE,163,1.0,6.0,85,0.00,,---,0.00,VWS V14.01,2013-06-10 13:58:00,
2013-06-10 09:03:00,77.0,72.2,29.92,SSE,163,1.0,3.0,85,0.00,,---,0.00,VWS V14.01,2013-06-10 14:03:00,
2013-06-10 09:08:00,77.6,72.0,29.92,SSE,162,3.0,3.0,83,0.00,,---,0.00,VWS V14.01,2013-06-10 14:08:00,
2013-06-10 09:13:00,77.6,72.0,29.92,South,177,5.0,5.0,83,0.00,,---,0.00,VWS V14.01,2013-06-10 14:13:00,
2013-06-10 09:18:00,77.6,72.0,29.92,SE,139,1.0,5.0,83,0.00,,---,0.00,VWS V14.01,2013-06-10 14:18:00,
2013-06-10 09:23:00,78.6,73.0,29.92,SE,139,2.0,2.0,83,0.00,,---,0.00,VWS V14.01,2013-06-10 14:23:00,
2013-06-10 09:28:00,78.8,73.2,29.92,SSE,164,2.0,3.0,83,0.00,,---,0.00,VWS V14.01,2013-06-10 14:28:00,
2013-06-10 09:33:00,79.4,73.8,29.92,SSW,208,2.0,5.0,83,0.00,,---,0.00,VWS V14.01,2013-06-10 14:33:00,
2013-06-10 09:38:00,79.4,73.8,29.91,SSW,207,1.0,5.0,83,0.00,,---,0.00,VWS V14.01,2013-06-10 14:38:00,
2013-06-10 09:43:00,79.4,73.8,29.91,SSW,207,3.0,5.0,83,0.00,,---,0.00,VWS V14.01,2013-06-10 14:43:00,
2013-06-10 09:48:00,80.3,72.8,29.91,SW,219,7.0,7.0,78,0.00,,---,0.00,VWS V14.01,2013-06-10 14:48:00,
2013-06-10 09:53:00,80.5,73.0,29.91,South,191,6.0,6.0,78,0.00,,---,0.00,VWS V14.01,2013-06-10 14:53:00,
2013-06-10 09:58:00,80.7,72.8,29.91,South,179,7.0,8.0,77,0.00,,---,0.00,VWS V14.01,2013-06-10 14:58:00,
2013-06-10 10:03:00,81.1,73.2,29.91,SSW,193,5.0,5.0,77,0.00,,---,0.00,VWS V14.01,2013-06-10 15:03:00,
2013-06-10 10:08:00,81.4,72.7,29.90,South,176,2.0,7.0,75,0.00,,---,0.00,VWS V14.01,2013-06-10 15:08:00,
2013-06-10 10:13:00,81.6,72.9,29.90,SE,140,5.0,6.0,75,0.00,,---,0.00,VWS V14.01,2013-06-10 15:13:00,
2013-06-10 10:18:00,82.0,72.9,29.90,South,179,3.0,6.0,74,0.00,,---,0.00,VWS V14.01,2013-06-10 15:18:00,
2013-06-10 10:23:00,82.2,73.9,29.91,SSE,153,8.0,8.0,76,0.00,,---,0.00,VWS V14.01,2013-06-10 15:23:00,
2013-06-10 10:28:00,82.2,71.9,29.91,South,184,3.0,8.0,71,0.00,,---,0.00,VWS V14.01,2013-06-10 15:28:00,
2013-06-10 10:33:00,82.6,72.2,29.91,SSE,159,5.0,7.0,71,0.00,,---,0.00,VWS V14.01,2013-06-10 15:33:00,
2013-06-10 10:38:00,82.6,72.2,29.91,SSE,153,5.0,10.0,71,0.00,,---,0.00,VWS V14.01,2013-06-10 15:38:00,
2013-06-10 10:43:00,83.0,73.1,29.91,SW,231,1.0,6.0,72,0.00,,---,0.00,VWS V14.01,2013-06-10 15:43:00,
2013-06-10 10:48:00,83.6,72.8,29.91,South,181,5.0,7.0,70,0.00,,---,0.00,VWS V14.01,2013-06-10 15:48:00,
2013-06-10 10:53:00,84.0,74.0,29.91,SSE,162,2.0,5.0,72,0.00,,---,0.00,VWS V14.01,2013-06-10 15:53:00,
2013-06-10 10:58:00,84.0,73.6,29.91,South,190,7.0,8.0,71,0.00,,---,0.00,VWS V14.01,2013-06-10 15:58:00,
2013-06-10 11:03:00,84.0,73.6,29.91,South,181,3.0,5.0,71,0.00,,---,0.00,VWS V14.01,2013-06-10 16:03:00,
2013-06-10 11:08:00,84.3,72.6,29.91,WNW,294,2.0,7.0,68,0.00,,---,0.00,VWS V14.01,2013-06-10 16:08:00,
2013-06-10 11:13:00,84.5,71.4,29.91,SW,214,5.0,8.0,65,0.00,,---,0.00,VWS V14.01,2013-06-10 16:13:00,
2013-06-10 11:18:00,84.5,72.8,29.91,South,187,2.0,10.0,68,0.00,,---,0.00,VWS V14.01,2013-06-10 16:18:00,
2013-06-10 11:23:00,84.3,72.6,29.91,South,176,8.0,10.0,68,0.00,,---,0.00,VWS V14.01,2013-06-10 16:23:00,
2013-06-10 11:28:00,84.7,73.8,29.91,SSE,152,5.0,10.0,70,0.00,,---,0.00,VWS V14.01,2013-06-10 16:28:00,
2013-06-10 11:33:00,84.9,74.0,29.91,SE,143,2.0,3.0,70,0.00,,---,0.00,VWS V14.01,2013-06-10 16:33:00,
2013-06-10 11:38:00,85.1,74.2,29.91,West,266,7.0,8.0,70,0.00,,---,0.00,VWS V14.01,2013-06-10 16:38:00,
2013-06-10 11:43:00,85.3,74.4,29.91,South,188,2.0,6.0,70,0.00,,---,0.00,VWS V14.01,2013-06-10 16:43:00,
2013-06-10 11:48:00,85.7,72.1,29.91,SSW,198,8.0,8.0,64,0.00,,---,0.00,VWS V14.01,2013-06-10 16:48:00,
2013-06-10 11:53:00,85.3,71.8,29.91,West,275,6.0,6.0,64,0.00,,---,0.00,VWS V14.01,2013-06-10 16:53:00,
2013-06-10 11:58:00,85.3,71.8,29.91,SSW,194,7.0,12.0,64,0.00,,---,0.00,VWS V14.01,2013-06-10 16:58:00,
2013-06-10 12:03:00,85.5,71.9,29.91,South,184,3.0,8.0,64,0.00,,---,0.00,VWS V14.01,2013-06-10 17:03:00,
2013-06-10 12:08:00,85.5,71.9,29.91,SSW,193,5.0,8.0,64,0.00,,---,0.00,VWS V14.01,2013-06-10 17:08:00,
2013-06-10 12:13:00,85.5,71.9,29.91,SSE,162,7.0,10.0,64,0.00,,---,0.00,VWS V14.01,2013-06-10 17:13:00,
2013-06-10 12:18:00,85.7,72.6,29.91,South,171,6.0,10.0,65,0.00,,---,0.00,VWS V14.01,2013-06-10 17:18:00,
2013-06-10 12:23:00,85.9,72.3,29.91,South,190,3.0,5.0,64,0.00,,---,0.00,VWS V14.01,2013-06-10 17:23:00,
2013-06-10 12:28:00,86.1,73.0,29.91,South,187,3.0,11.0,65,0.00,,---,0.00,VWS V14.01,2013-06-10 17:28:00,
2013-06-10 12:33:00,86.5,73.3,29.91,SSW,195,3.0,6.0,65,0.00,,---,0.00,VWS V14.01,2013-06-10 17:33:00,
2013-06-10 12:37:00,86.7,72.6,29.90,SW,218,5.0,8.0,63,0.00,,---,0.00,VWS V14.01,2013-06-10 17:37:00,
2013-06-10 12:42:00,87.0,73.4,29.90,SSW,210,2.0,6.0,64,0.00,,---,0.00,VWS V14.01,2013-06-10 17:42:00,
2013-06-10 12:47:00,87.2,72.6,29.90,SE,139,7.0,10.0,62,0.00,,---,0.00,VWS V14.01,2013-06-10 17:47:00,
2013-06-10 12:52:00,87.0,72.4,29.90,West,262,3.0,7.0,62,0.00,,---,0.00,VWS V14.01,2013-06-10 17:52:00,
2013-06-10 12:57:00,87.6,73.0,29.90,WSW,241,3.0,7.0,62,0.00,,---,0.00,VWS V14.01,2013-06-10 17:57:00,
2013-06-10 13:03:00,87.6,73.0,29.89,WNW,284,5.0,5.0,62,0.00,,---,0.00,VWS V14.01,2013-06-10 18:03:00,
2013-06-10 13:07:00,87.8,73.2,29.90,South,188,3.0,10.0,62,0.00,,---,0.00,VWS V14.01,2013-06-10 18:07:00,
2013-06-10 13:13:00,87.6,72.5,29.89,SSE,164,2.0,6.0,61,0.00,,---,0.00,VWS V14.01,2013-06-10 18:13:00,
2013-06-10 13:18:00,87.4,71.3,29.89,South,187,5.0,8.0,59,0.00,,---,0.00,VWS V14.01,2013-06-10 18:18:00,
2013-06-10 13:23:00,87.6,71.5,29.89,SSW,205,2.0,10.0,59,0.00,,---,0.00,VWS V14.01,2013-06-10 18:23:00,
2013-06-10 13:28:00,88.0,73.4,29.89,SSW,200,1.0,10.0,62,0.00,,---,0.00,VWS V14.01,2013-06-10 18:28:00,
2013-06-10 13:33:00,88.2,73.6,29.88,South,191,6.0,12.0,62,0.00,,---,0.00,VWS V14.01,2013-06-10 18:33:00,
2013-06-10 13:38:00,88.4,73.7,29.88,South,190,5.0,12.0,62,0.00,,---,0.00,VWS V14.01,2013-06-10 18:38:00,
2013-06-10 13:43:00,88.6,73.4,29.88,SSW,208,1.0,7.0,61,0.00,,---,0.00,VWS V14.01,2013-06-10 18:43:00,
2013-06-10 13:48:00,88.8,71.6,29.88,SSW,195,1.0,7.0,57,0.00,,---,0.00,VWS V14.01,2013-06-10 18:48:00,
2013-06-10 13:53:00,88.8,72.1,29.88,West,280,7.0,11.0,58,0.00,,---,0.00,VWS V14.01,2013-06-10 18:53:00,
2013-06-10 13:58:00,89.0,73.8,29.88,WNW,282,5.0,11.0,61,0.00,,---,0.00,VWS V14.01,2013-06-10 18:58:00,
2013-06-10 14:03:00,89.0,73.3,29.88,SW,231,3.0,3.0,60,0.00,,---,0.00,VWS V14.01,2013-06-10 19:03:00,
2013-06-10 14:08:00,89.3,74.1,29.88,SE,136,2.0,7.0,61,0.00,,---,0.00,VWS V14.01,2013-06-10 19:08:00,
2013-06-10 14:13:00,89.5,74.3,29.88,SSE,160,3.0,6.0,61,0.00,,---,0.00,VWS V14.01,2013-06-10 19:13:00,
2013-06-10 14:18:00,89.7,72.4,29.88,SSW,200,5.0,7.0,57,0.00,,---,0.00,VWS V14.01,2013-06-10 19:18:00,
2013-06-10 14:23:00,89.5,72.3,29.88,SSW,198,3.0,8.0,57,0.00,,---,0.00,VWS V14.01,2013-06-10 19:23:00,
2013-06-10 14:28:00,89.5,72.3,29.88,SE,142,5.0,8.0,57,0.00,,---,0.00,VWS V14.01,2013-06-10 19:28:00,
2013-06-10 14:33:00,89.7,74.5,29.88,SE,139,5.0,5.0,61,0.00,,---,0.00,VWS V14.01,2013-06-10 19:33:00,
2013-06-10 14:38:00,90.1,72.8,29.87,South,187,5.0,6.0,57,0.00,,---,0.00,VWS V14.01,2013-06-10 19:38:00,
2013-06-10 14:43:00,90.3,73.0,29.87,SSW,210,1.0,8.0,57,0.00,,---,0.00,VWS V14.01,2013-06-10 19:43:00,
2013-06-10 14:48:00,90.1,72.8,29.87,SSW,197,2.0,8.0,57,0.00,,---,0.00,VWS V14.01,2013-06-10 19:48:00,
2013-06-10 14:53:00,90.1,72.8,29.87,South,187,1.0,1.0,57,0.00,,---,0.00,VWS V14.01,2013-06-10 19:53:00,
2013-06-10 14:58:00,90.5,73.2,29.87,SSW,204,7.0,11.0,57,0.00,,---,0.00,VWS V14.01,2013-06-10 19:58:00,
2013-06-10 15:03:00,90.5,69.3,29.87,WSW,249,6.0,7.0,50,0.00,,---,0.00,VWS V14.01,2013-06-10 20:03:00,
2013-06-10 15:08:00,90.5,69.9,29.87,SSE,153,2.0,7.0,51,0.00,,---,0.00,VWS V14.01,2013-06-10 20:08:00,
2013-06-10 15:13:00,91.2,70.6,29.87,West,263,1.0,6.0,51,0.00,,---,0.00,VWS V14.01,2013-06-10 20:13:00,
2013-06-10 15:18:00,91.4,73.0,29.87,South,180,2.0,6.0,55,0.00,,---,0.00,VWS V14.01,2013-06-10 20:18:00,
2013-06-10 15:23:00,91.4,70.7,29.87,SSE,163,3.0,10.0,51,0.00,,---,0.00,VWS V14.01,2013-06-10 20:23:00,
2013-06-10 15:28:00,91.4,69.0,29.87,SSE,159,3.0,10.0,48,0.00,,---,0.00,VWS V14.01,2013-06-10 20:28:00,
2013-06-10 15:33:00,91.4,69.0,29.87,South,170,5.0,5.0,48,0.00,,---,0.00,VWS V14.01,2013-06-10 20:33:00,
2013-06-10 15:38:00,91.2,69.4,29.87,SSW,200,12.0,12.0,49,0.00,,---,0.00,VWS V14.01,2013-06-10 20:38:00,
2013-06-10 15:43:00,91.2,69.4,29.87,SSW,200,10.0,10.0,49,0.00,,---,0.00,VWS V14.01,2013-06-10 20:43:00,
2013-06-10 15:48:00,91.4,71.3,29.86,SSW,212,2.0,10.0,52,0.00,,---,0.00,VWS V14.01,2013-06-10 20:48:00,
2013-06-10 15:53:00,91.4,71.3,29.87,SSE,162,2.0,6.0,52,0.00,,---,0.00,VWS V14.01,2013-06-10 20:53:00,
2013-06-10 15:58:00,91.6,72.1,29.86,SSW,204,2.0,8.0,53,0.00,,---,0.00,VWS V14.01,2013-06-10 20:58:00,
2013-06-10 16:03:00,91.8,72.2,29.86,SW,214,6.0,8.0,53,0.00,,---,0.00,VWS V14.01,2013-06-10 21:03:00,
2013-06-10 16:08:00,91.6,71.5,29.86,SSE,164,3.0,8.0,52,0.00,,---,0.00,VWS V14.01,2013-06-10 21:08:00,
2013-06-10 16:13:00,91.4,71.3,29.86,SSW,207,3.0,6.0,52,0.00,,---,0.00,VWS V14.01,2013-06-10 21:13:00,
2013-06-10 16:18:00,91.6,71.5,29.86,SSW,193,2.0,8.0,52,0.00,,---,0.00,VWS V14.01,2013-06-10 21:18:00,
2013-06-10 16:23:00,92.1,70.2,29.86,South,184,2.0,2.0,49,0.00,,---,0.00,VWS V14.01,2013-06-10 21:23:00,
2013-06-10 16:28:00,91.8,69.9,29.86,South,184,6.0,11.0,49,0.00,,---,0.00,VWS V14.01,2013-06-10 21:28:00,
2013-06-10 16:33:00,91.6,69.8,29.86,South,170,2.0,8.0,49,0.00,,---,0.00,VWS V14.01,2013-06-10 21:33:00,
2013-06-10 16:38:00,91.8,68.7,29.86,South,177,6.0,8.0,47,0.00,,---,0.00,VWS V14.01,2013-06-10 21:38:00,
2013-06-10 16:43:00,92.1,69.0,29.86,SSW,200,3.0,6.0,47,0.00,,---,0.00,VWS V14.01,2013-06-10 21:43:00,
2013-06-10 16:48:00,92.1,69.0,29.86,SE,139,6.0,8.0,47,0.00,,---,0.00,VWS V14.01,2013-06-10 21:48:00,
2013-06-10 16:53:00,91.8,68.7,29.86,SSW,204,5.0,5.0,47,0.00,,---,0.00,VWS V14.01,2013-06-10 21:53:00,
2013-06-10 16:58:00,91.8,69.3,29.86,South,174,2.0,6.0,48,0.00,,---,0.00,VWS V14.01,2013-06-10 21:58:00,
2013-06-10 17:03:00,92.1,70.2,29.86,SSW,195,3.0,7.0,49,0.00,,---,0.00,VWS V14.01,2013-06-10 22:03:00,
2013-06-10 17:08:00,92.1,70.8,29.86,SSW,195,2.0,7.0,50,0.00,,---,0.00,VWS V14.01,2013-06-10 22:08:00,
2013-06-10 17:13:00,92.5,70.0,29.86,South,190,3.0,6.0,48,0.00,,---,0.00,VWS V14.01,2013-06-10 22:13:00,
2013-06-10 17:18:00,92.5,72.3,29.86,SSE,164,5.0,6.0,52,0.00,,---,0.00,VWS V14.01,2013-06-10 22:18:00,
2013-06-10 17:23:00,92.5,71.8,29.86,SSW,197,5.0,6.0,51,0.00,,---,0.00,VWS V14.01,2013-06-10 22:23:00,
2013-06-10 17:28:00,92.1,71.4,29.86,South,173,5.0,6.0,51,0.00,,---,0.00,VWS V14.01,2013-06-10 22:28:00,
2013-06-10 17:33:00,91.8,71.7,29.85,South,188,2.0,5.0,52,0.00,,---,0.00,VWS V14.01,2013-06-10 22:33:00,
2013-06-10 17:38:00,91.6,71.5,29.85,South,171,1.0,6.0,52,0.00,,---,0.00,VWS V14.01,2013-06-10 22:38:00,
2013-06-10 17:43:00,91.4,71.9,29.86,SSW,198,6.0,7.0,53,0.00,,---,0.00,VWS V14.01,2013-06-10 22:43:00,
2013-06-10 17:48:00,91.0,70.9,29.86,SE,126,2.0,7.0,52,0.00,,---,0.00,VWS V14.01,2013-06-10 22:48:00,
2013-06-10 17:53:00,90.7,70.1,29.85,South,181,3.0,5.0,51,0.00,,---,0.00,VWS V14.01,2013-06-10 22:53:00,
2013-06-10 17:58:00,90.7,71.2,29.85,SE,140,2.0,5.0,53,0.00,,---,0.00,VWS V14.01,2013-06-10 22:58:00,
2013-06-10 18:03:00,90.7,71.8,29.85,South,186,1.0,3.0,54,0.00,,---,0.00,VWS V14.01,2013-06-10 23:03:00,
2013-06-10 18:08:00,90.7,71.2,29.85,SSE,153,1.0,6.0,53,0.00,,---,0.00,VWS V14.01,2013-06-10 23:08:00,
2013-06-10 18:13:00,90.5,71.1,29.85,South,187,3.0,5.0,53,0.00,,---,0.00,VWS V14.01,2013-06-10 23:13:00,
2013-06-10 18:18:00,90.3,70.9,29.85,SSE,166,1.0,5.0,53,0.00,,---,0.00,VWS V14.01,2013-06-10 23:18:00,
2013-06-10 18:23:00,90.3,70.9,29.85,South,173,3.0,5.0,53,0.00,,---,0.00,VWS V14.01,2013-06-10 23:23:00,
2013-06-10 18:28:00,90.1,71.8,29.85,South,173,2.0,5.0,55,0.00,,---,0.00,VWS V14.01,2013-06-10 23:28:00,
2013-06-10 18:33:00,90.3,72.5,29.85,South,184,5.0,5.0,56,0.00,,---,0.00,VWS V14.01,2013-06-10 23:33:00,
2013-06-10 18:38:00,89.9,71.0,29.85,South,181,3.0,6.0,54,0.00,,---,0.00,VWS V14.01,2013-06-10 23:38:00,
2013-06-10 18:43:00,89.9,72.1,29.85,South,169,2.0,3.0,56,0.00,,---,0.00,VWS V14.01,2013-06-10 23:43:00,
2013-06-10 18:48:00,89.7,71.9,29.86,South,174,3.0,5.0,56,0.00,,---,0.00,VWS V14.01,2013-06-10 23:48:00,
2013-06-10 18:53:00,89.5,71.7,29.86,South,174,1.0,2.0,56,0.00,,---,0.00,VWS V14.01,2013-06-10 23:53:00,
2013-06-10 18:58:00,89.3,71.6,29.86,SSE,160,1.0,5.0,56,0.00,,---,0.00,VWS V14.01,2013-06-10 23:58:00,
2013-06-10 19:03:00,89.0,73.3,29.85,SSE,160,3.0,3.0,60,0.00,,---,0.00,VWS V14.01,2013-06-11 00:03:00,
2013-06-10 19:08:00,88.8,73.1,29.85,SSE,160,1.0,3.0,60,0.00,,---,0.00,VWS V14.01,2013-06-11 00:08:00,
2013-06-10 19:13:00,88.8,73.1,29.85,SSE,160,1.0,3.0,60,0.00,,---,0.00,VWS V14.01,2013-06-11 00:13:00,
2013-06-10 19:18:00,88.8,73.1,29.85,SSE,160,1.0,3.0,60,0.00,,---,0.00,VWS V14.01,2013-06-11 00:18:00,
2013-06-10 19:23:00,88.6,74.4,29.85,SSE,160,2.0,2.0,63,0.00,,---,0.00,VWS V14.01,2013-06-11 00:23:00,
2013-06-10 19:28:00,88.2,74.0,29.85,SSE,160,1.0,2.0,63,0.00,,---,0.00,VWS V14.01,2013-06-11 00:28:00,
2013-06-10 19:33:00,88.0,74.8,29.85,SSE,160,1.0,1.0,65,0.00,,---,0.00,VWS V14.01,2013-06-11 00:33:00,
2013-06-10 19:38:00,87.4,75.1,29.85,SSE,160,1.0,2.0,67,0.00,,---,0.00,VWS V14.01,2013-06-11 00:38:00,
2013-06-10 19:43:00,87.2,75.8,29.85,SSE,160,1.0,1.0,69,0.00,,---,0.00,VWS V14.01,2013-06-11 00:43:00,
2013-06-10 19:48:00,86.5,75.1,29.85,SSE,160,1.0,1.0,69,0.00,,---,0.00,VWS V14.01,2013-06-11 00:48:00,
2013-06-10 19:53:00,86.1,75.6,29.85,SSE,160,1.0,1.0,71,0.00,,---,0.00,VWS V14.01,2013-06-11 00:53:00,
2013-06-10 19:58:00,85.5,75.9,29.85,SSE,160,1.0,1.0,73,0.00,,---,0.00,VWS V14.01,2013-06-11 00:58:00,
2013-06-10 20:03:00,85.1,76.3,29.85,SSE,160,0.0,0.0,75,0.00,,---,0.00,VWS V14.01,2013-06-11 01:03:00,
2013-06-10 20:08:00,84.1,75.3,29.85,SSE,160,0.0,0.0,75,0.00,,---,0.00,VWS V14.01,2013-06-11 01:08:00,
2013-06-10 20:13:00,83.6,75.6,29.85,SSE,160,0.0,0.0,77,0.00,,---,0.00,VWS V14.01,2013-06-11 01:13:00,
2013-06-10 20:18:00,82.4,74.5,29.85,SSE,160,0.0,0.0,77,0.00,,---,0.00,VWS V14.01,2013-06-11 01:18:00,
2013-06-10 20:23:00,82.0,74.1,29.85,SSE,160,0.0,0.0,77,0.00,,---,0.00,VWS V14.01,2013-06-11 01:23:00,
2013-06-10 20:28:00,81.1,75.4,29.85,SSE,160,0.0,0.0,83,0.00,,---,0.00,VWS V14.01,2013-06-11 01:28:00,
2013-06-10 20:33:00,80.7,75.1,29.85,SSE,160,0.0,0.0,83,0.00,,---,0.00,VWS V14.01,2013-06-11 01:33:00,
2013-06-10 20:38:00,79.8,74.2,29.85,SSE,160,0.0,0.0,83,0.00,,---,0.00,VWS V14.01,2013-06-11 01:38:00,
2013-06-10 20:43:00,79.4,73.8,29.85,SSE,160,0.0,0.0,83,0.00,,---,0.00,VWS V14.01,2013-06-11 01:43:00,
2013-06-10 20:48:00,78.8,73.2,29.85,SSE,160,0.0,0.0,83,0.00,,---,0.00,VWS V14.01,2013-06-11 01:48:00,
2013-06-10 20:53:00,78.8,73.6,29.85,SSE,160,0.0,0.0,84,0.00,,---,0.00,VWS V14.01,2013-06-11 01:53:00,
2013-06-10 20:58:00,78.5,73.3,29.85,SSE,160,0.0,0.0,84,0.00,,---,0.00,VWS V14.01,2013-06-11 01:58:00,
2013-06-10 21:03:00,78.1,73.2,29.85,SSE,160,0.0,0.0,85,0.00,,---,0.00,VWS V14.01,2013-06-11 02:03:00,
2013-06-10 21:08:00,77.7,72.8,29.85,SSE,160,0.0,0.0,85,0.00,,---,0.00,VWS V14.01,2013-06-11 02:08:00,
2013-06-10 21:13:00,77.6,72.7,29.85,SSE,160,0.0,0.0,85,0.00,,---,0.00,VWS V14.01,2013-06-11 02:13:00,
2013-06-10 21:18:00,77.0,72.2,29.85,SSE,160,0.0,0.0,85,0.00,,---,0.00,VWS V14.01,2013-06-11 02:18:00,
2013-06-10 21:23:00,76.7,71.9,29.85,SSE,160,0.0,0.0,85,0.00,,---,0.00,VWS V14.01,2013-06-11 02:23:00,
2013-06-10 21:28:00,76.3,71.5,29.85,SSE,160,0.0,0.0,85,0.00,,---,0.00,VWS V14.01,2013-06-11 02:28:00,
2013-06-10 21:33:00,76.1,71.6,29.85,SSE,160,0.0,0.0,86,0.00,,---,0.00,VWS V14.01,2013-06-11 02:33:00,
2013-06-10 21:38:00,75.6,71.1,29.85,SSE,160,0.0,0.0,86,0.00,,---,0.00,VWS V14.01,2013-06-11 02:38:00,
2013-06-10 21:43:00,75.4,70.9,29.85,SSE,160,0.0,0.0,86,0.00,,---,0.00,VWS V14.01,2013-06-11 02:43:00,
2013-06-10 21:48:00,75.1,71.0,29.86,SSE,160,0.0,0.0,87,0.00,,---,0.00,VWS V14.01,2013-06-11 02:48:00,
2013-06-10 21:53:00,74.9,70.8,29.86,SSE,160,0.0,0.0,87,0.00,,---,0.00,VWS V14.01,2013-06-11 02:53:00,
2013-06-10 21:58:00,74.4,70.3,29.86,SSE,160,0.0,0.0,87,0.00,,---,0.00,VWS V14.01,2013-06-11 02:58:00,
2013-06-10 22:03:00,74.2,70.1,29.86,SSE,160,0.0,0.0,87,0.00,,---,0.00,VWS V14.01,2013-06-11 03:03:00,
2013-06-10 22:08:00,73.9,70.1,29.86,SSE,160,0.0,0.0,88,0.00,,---,0.00,VWS V14.01,2013-06-11 03:08:00,
2013-06-10 22:13:00,73.7,69.9,29.86,SSE,160,0.0,0.0,88,0.00,,---,0.00,VWS V14.01,2013-06-11 03:13:00,
2013-06-10 22:18:00,73.3,69.5,29.87,SSE,160,0.0,0.0,88,0.00,,---,0.00,VWS V14.01,2013-06-11 03:18:00,
2013-06-10 22:23:00,73.2,69.4,29.87,SSE,160,0.0,0.0,88,0.00,,---,0.00,VWS V14.01,2013-06-11 03:23:00,
2013-06-10 22:28:00,73.0,69.2,29.87,SSE,160,0.0,0.0,88,0.00,,---,0.00,VWS V14.01,2013-06-11 03:28:00,
2013-06-10 22:33:00,72.8,69.0,29.88,SSE,160,0.0,0.0,88,0.00,,---,0.00,VWS V14.01,2013-06-11 03:33:00,
2013-06-10 22:38:00,72.8,69.0,29.88,SSE,160,0.0,0.0,88,0.00,,---,0.00,VWS V14.01,2013-06-11 03:38:00,
2013-06-10 22:43:00,72.7,68.9,29.88,SSE,160,0.0,0.0,88,0.00,,---,0.00,VWS V14.01,2013-06-11 03:43:00,
2013-06-10 22:48:00,72.5,69.4,29.88,SSE,160,0.0,0.0,90,0.00,,---,0.00,VWS V14.01,2013-06-11 03:48:00,
2013-06-10 22:53:00,72.5,69.4,29.88,SSE,160,0.0,0.0,90,0.00,,---,0.00,VWS V14.01,2013-06-11 03:53:00,
2013-06-10 22:58:00,72.1,68.7,29.88,SSE,160,0.0,0.0,89,0.00,,---,0.00,VWS V14.01,2013-06-11 03:58:00,
2013-06-10 23:01:00,72.0,68.9,29.88,SSE,160,0.0,0.0,90,0.00,,---,0.00,VWS V14.01,2013-06-11 04:01:00,
2013-06-10 23:02:00,72.0,68.9,29.88,SSE,160,0.0,0.0,90,0.00,,---,0.00,VWS V14.01,2013-06-11 04:02:00,
2013-06-10 23:07:00,71.6,68.5,29.88,SSE,160,0.0,0.0,90,0.00,,---,0.00,VWS V14.01,2013-06-11 04:07:00,
2013-06-10 23:12:00,71.6,68.5,29.88,SSE,160,0.0,0.0,90,0.00,,---,0.00,VWS V14.01,2013-06-11 04:12:00,
2013-06-10 23:17:00,71.3,68.2,29.88,SSE,160,0.0,0.0,90,0.00,,---,0.00,VWS V14.01,2013-06-11 04:17:00,
2013-06-10 23:22:00,71.3,68.2,29.88,SSE,160,0.0,0.0,90,0.00,,---,0.00,VWS V14.01,2013-06-11 04:22:00,
2013-06-10 23:27:00,70.9,67.8,29.88,SSE,160,0.0,0.0,90,0.00,,---,0.00,VWS V14.01,2013-06-11 04:27:00,
2013-06-10 23:32:00,70.8,67.7,29.88,SSE,160,0.0,0.0,90,0.00,,---,0.00,VWS V14.01,2013-06-11 04:32:00,
2013-06-10 23:38:00,70.6,67.8,29.89,SSE,160,0.0,0.0,91,0.00,,---,0.00,VWS V14.01,2013-06-11 04:38:00,
2013-06-10 23:43:00,70.6,67.8,29.89,SSE,160,0.0,0.0,91,0.00,,---,0.00,VWS V14.01,2013-06-11 04:43:00,
2013-06-10 23:48:00,70.3,67.6,29.88,SSE,160,0.0,0.0,91,0.00,,---,0.00,VWS V14.01,2013-06-11 04:48:00,